This is the latest recevied weather packets stored in our database for station/object EB2GLU-13. If no packets are shown the sender has not sent any weather packets the latest 1 day(s).
| Time | Temp. | Humidity | Pressure | Rain* | Wind** | Luminosity | Snow |
|---|---|---|---|---|---|---|---|
| 1777995042 | 16.11° C | 75% | 1013.6 hPa | 0 mm | 0 m/s | - | - |
| 1777994292 | 17.22° C | 76% | 1013.5 hPa | 0 mm | 0 m/s | - | - |
| 1777993542 | 16.67° C | 77% | 1013.4 hPa | 0 mm | 0 m/s | - | - |
| 1777992792 | 16.67° C | 75% | 1013.4 hPa | 0 mm | 0 m/s | - | - |
| 1777992042 | 16.11° C | 81% | 1013.6 hPa | 0 mm | 0 m/s | - | - |
| 1777991292 | 15° C | 83% | 1013.5 hPa | 0 mm | 0 m/s | - | - |
| 1777990542 | 15° C | 81% | 1013.6 hPa | 0 mm | 0 m/s | - | - |
| 1777989792 | 14.44° C | 85% | 1013.7 hPa | 0 mm | 0 m/s | - | - |
| 1777989042 | 13.33° C | 83% | 1013.7 hPa | 0 mm | 0 m/s | - | - |
| 1777988292 | 13.33° C | 80% | 1013.7 hPa | 0.25 mm | 0 m/s | - | - |
| 1777987542 | 13.33° C | 82% | 1013.7 hPa | 0.76 mm | 0 m/s | - | - |
| 1777986792 | 13.33° C | 86% | 1013.5 hPa | 1.27 mm | 0 m/s | - | - |
| 1777986042 | 12.78° C | 88% | 1013.4 hPa | 2.03 mm | 0 m/s | - | - |
| 1777985291 | 11.67° C | 88% | 1013.7 hPa | 2.03 mm | 0.45 m/s, 80° | - | - |
| 1777984542 | 11.67° C | 88% | 1013.7 hPa | 1.78 mm | 0 m/s | - | - |
| 1777983792 | 12.22° C | 84% | 1013.7 hPa | 0.76 mm | 0.45 m/s, 38° | - | - |
| 1777983041 | 15° C | 79% | 1013.6 hPa | 0.25 mm | 0.45 m/s, 174° | - | - |
| 1777982291 | 18.89° C | 66% | 1013 hPa | 2.29 mm | 0 m/s | - | - |
| 1777981541 | 16.67° C | 80% | 1013 hPa | 2.29 mm | 0.45 m/s, 114° | - | - |
| 1777980791 | 14.44° C | 88% | 1013.1 hPa | 2.29 mm | 0 m/s | - | - |
| 1777980041 | 13.89° C | 89% | 1013.2 hPa | 2.29 mm | 0 m/s | - | - |
| 1777979291 | 15.56° C | 86% | 1013.4 hPa | 2.03 mm | 0 m/s | - | - |
| 1777978541 | 17.22° C | 65% | 1013.4 hPa | 0 mm | 0 m/s | - | - |
| 1777977791 | 18.33° C | 63% | 1013.5 hPa | 0 mm | 0.45 m/s, 90° | - | - |
| 1777977041 | 18.33° C | 69% | 1013.4 hPa | 0 mm | 0 m/s | - | - |
* Rain latest hour (hover to see other rain measurements)
** Current wind speed in m/s (hover to see current wind gust speed)